createdAt,value
2023-05-14T00:01:07.640Z,13.98
2023-05-14T00:04:12.900Z,15.68
2023-05-14T00:07:18.590Z,10.98
2023-05-14T00:10:26.213Z,9.00
2023-05-14T00:13:32.303Z,9.73
2023-05-14T00:16:38.153Z,10.32
2023-05-14T00:19:46.397Z,10.50
2023-05-14T00:22:51.899Z,10.75
2023-05-14T00:25:57.302Z,9.93
2023-05-14T00:29:02.634Z,9.75
2023-05-14T00:32:09.140Z,9.28
2023-05-14T00:35:16.011Z,9.35
2023-05-14T00:38:22.780Z,9.33
2023-05-14T00:41:28.273Z,8.80
2023-05-14T00:44:34.352Z,10.95
2023-05-14T00:47:45.949Z,8.55
2023-05-14T00:50:51.113Z,8.35
2023-05-14T00:53:57.635Z,9.28
2023-05-14T00:57:03.701Z,11.78
2023-05-14T01:00:10.048Z,8.68
2023-05-14T01:03:14.850Z,12.70
2023-05-14T01:07:08.626Z,10.15
2023-05-14T01:10:28.747Z,10.35
2023-05-14T01:13:59.514Z,10.48
2023-05-14T01:17:08.728Z,10.23
2023-05-14T01:20:15.905Z,9.30
2023-05-14T01:23:21.859Z,10.43
2023-05-14T01:26:28.372Z,9.90
2023-05-14T01:29:38.241Z,10.70
2023-05-14T01:32:45.166Z,10.40
2023-05-14T01:35:51.590Z,10.95
2023-05-14T01:38:58.400Z,10.90
2023-05-14T01:42:04.345Z,11.45
2023-05-14T01:45:11.518Z,8.95
2023-05-14T01:48:19.803Z,9.58
2023-05-14T01:51:25.693Z,10.48
2023-05-14T01:54:30.589Z,10.15
2023-05-14T01:57:36.806Z,10.45
2023-05-14T02:00:41.945Z,9.35
2023-05-14T02:03:49.946Z,10.10
2023-05-14T02:06:55.428Z,21.02
2023-05-14T02:10:01.414Z,26.80
2023-05-14T02:13:07.923Z,52.95
2023-05-14T02:16:14.619Z,33.00
2023-05-14T02:19:21.699Z,18.70
2023-05-14T02:22:26.903Z,10.88
2023-05-14T02:25:31.907Z,8.68
2023-05-14T02:28:37.023Z,7.78
2023-05-14T02:31:44.673Z,9.68
2023-05-14T02:34:50.993Z,8.70
2023-05-14T02:37:57.183Z,9.75
2023-05-14T02:41:02.280Z,9.25
2023-05-14T02:44:08.003Z,12.40
2023-05-14T02:47:13.660Z,9.68
2023-05-14T02:50:20.117Z,8.10
2023-05-14T02:53:24.944Z,9.18
2023-05-14T02:56:30.688Z,10.58
2023-05-14T02:59:39.434Z,10.00
2023-05-14T03:02:46.921Z,9.78
2023-05-14T03:05:54.944Z,9.25
2023-05-14T03:09:01.770Z,8.10
2023-05-14T03:12:07.893Z,10.53
2023-05-14T03:15:14.381Z,11.73
2023-05-14T03:18:20.305Z,7.22
2023-05-14T03:21:25.624Z,9.80
2023-05-14T03:24:31.910Z,11.00
2023-05-14T03:27:37.408Z,7.60
2023-05-14T03:30:44.650Z,10.35
2023-05-14T03:33:51.514Z,12.85
2023-05-14T03:36:57.906Z,9.60
2023-05-14T03:40:03.861Z,8.50
2023-05-14T03:43:09.365Z,7.92
2023-05-14T03:46:15.228Z,8.40
2023-05-14T03:49:21.844Z,8.20
2023-05-14T03:52:27.334Z,9.70
2023-05-14T03:55:37.317Z,10.60
2023-05-14T03:58:43.194Z,8.35
2023-05-14T04:01:48.525Z,8.48
2023-05-14T04:04:54.104Z,9.93
2023-05-14T04:08:05.079Z,7.22
2023-05-14T04:11:11.818Z,6.97
2023-05-14T04:14:20.521Z,8.38
2023-05-14T04:17:25.199Z,10.13
2023-05-14T04:20:30.080Z,12.73
2023-05-14T04:23:38.593Z,10.32
2023-05-14T04:26:43.913Z,11.65
2023-05-14T04:29:49.337Z,6.35
2023-05-14T04:32:55.738Z,6.60
2023-05-14T04:36:02.133Z,9.75
2023-05-14T04:39:07.711Z,7.92
2023-05-14T04:42:14.450Z,6.92
2023-05-14T04:45:21.011Z,10.50
2023-05-14T04:48:25.634Z,7.47
2023-05-14T04:51:32.191Z,5.45
2023-05-14T04:54:39.326Z,10.45
2023-05-14T04:57:44.986Z,6.50
2023-05-14T05:00:51.688Z,9.00
2023-05-14T05:03:58.036Z,7.00
2023-05-14T05:07:05.359Z,5.78
2023-05-14T05:10:13.328Z,6.12
2023-05-14T05:13:19.249Z,6.83
2023-05-14T05:16:26.330Z,6.37
2023-05-14T05:19:43.104Z,5.62
2023-05-14T05:22:41.211Z,9.93
2023-05-14T05:25:46.547Z,5.85
2023-05-14T05:28:52.303Z,7.47
2023-05-14T05:31:57.912Z,7.87
2023-05-14T05:35:03.588Z,7.45
2023-05-14T05:38:08.955Z,6.08
2023-05-14T05:41:15.257Z,8.30
2023-05-14T05:44:21.360Z,6.67
2023-05-14T05:47:28.032Z,6.62
2023-05-14T05:50:33.601Z,6.25
2023-05-14T05:53:40.168Z,7.25
2023-05-14T05:56:45.912Z,9.25
2023-05-14T05:59:51.258Z,5.95
2023-05-14T06:02:57.117Z,7.62
2023-05-14T06:06:03.289Z,10.48
2023-05-14T06:09:13.078Z,7.00
2023-05-14T06:12:20.469Z,6.70
2023-05-14T06:15:27.245Z,6.67
2023-05-14T06:18:32.758Z,7.70
2023-05-14T06:21:39.540Z,5.08
2023-05-14T06:24:45.434Z,12.13
2023-05-14T06:27:52.554Z,5.17
2023-05-14T06:30:57.804Z,8.15
2023-05-14T06:34:03.744Z,7.67
2023-05-14T06:37:10.761Z,12.45
2023-05-14T06:40:16.884Z,8.53
2023-05-14T06:43:24.870Z,5.50
2023-05-14T06:46:31.016Z,7.33
2023-05-14T06:49:36.881Z,4.58
2023-05-14T06:52:43.213Z,4.60
2023-05-14T06:55:50.432Z,8.08
2023-05-14T06:58:57.212Z,7.75
2023-05-14T07:02:03.603Z,8.58
2023-05-14T07:05:10.057Z,5.55
2023-05-14T07:08:17.238Z,7.20
2023-05-14T07:11:23.903Z,8.68
2023-05-14T07:14:32.552Z,6.70
2023-05-14T07:17:38.292Z,5.45
2023-05-14T07:20:44.444Z,5.03
2023-05-14T07:23:51.050Z,7.45
2023-05-14T07:26:55.876Z,7.10
2023-05-14T07:30:02.168Z,6.30
2023-05-14T07:33:08.816Z,5.10
2023-05-14T07:36:15.671Z,5.85
2023-05-14T07:39:21.221Z,8.60
2023-05-14T07:42:35.865Z,8.08
2023-05-14T07:45:34.865Z,6.70
2023-05-14T07:48:40.806Z,6.15
2023-05-14T07:51:48.568Z,5.33
2023-05-14T07:54:56.447Z,7.25
2023-05-14T07:58:04.329Z,4.15
2023-05-14T08:01:11.197Z,6.65
2023-05-14T08:04:18.365Z,6.53
2023-05-14T08:07:23.333Z,8.40
2023-05-14T08:10:29.740Z,9.03
2023-05-14T08:13:35.871Z,4.75
2023-05-14T08:16:41.000Z,4.78
2023-05-14T08:19:48.947Z,5.72
2023-05-14T08:22:54.810Z,7.25
2023-05-14T08:26:00.948Z,5.40
2023-05-14T08:29:10.785Z,7.30
2023-05-14T08:32:23.498Z,8.18
2023-05-14T08:35:24.393Z,5.40
2023-05-14T08:38:30.013Z,6.58
2023-05-14T08:41:37.413Z,7.12
2023-05-14T08:44:58.191Z,6.12
2023-05-14T08:48:08.192Z,5.00
2023-05-14T08:51:13.365Z,6.30
2023-05-14T08:54:23.359Z,7.12
2023-05-14T08:57:32.008Z,4.60
2023-05-14T09:00:37.929Z,14.35
2023-05-14T09:03:43.361Z,4.55
2023-05-14T09:06:51.570Z,11.00
2023-05-14T09:09:58.521Z,21.55
2023-05-14T09:13:03.583Z,16.75
2023-05-14T09:16:09.679Z,45.88
2023-05-14T09:19:16.365Z,7.53
2023-05-14T09:22:28.988Z,9.13
2023-05-14T09:25:34.374Z,21.33
2023-05-14T09:28:41.221Z,7.12
2023-05-14T09:31:47.961Z,14.28
2023-05-14T09:34:54.391Z,11.97
2023-05-14T09:38:01.714Z,5.30
2023-05-14T09:41:07.626Z,6.97
2023-05-14T09:44:12.340Z,7.50
2023-05-14T09:47:17.507Z,4.35
2023-05-14T09:50:25.631Z,9.80
2023-05-14T09:53:34.623Z,13.05
2023-05-14T09:56:41.492Z,4.53
2023-05-14T09:59:48.733Z,7.12
2023-05-14T10:02:55.884Z,3.83
2023-05-14T10:06:03.534Z,6.83
2023-05-14T10:09:14.164Z,3.98
2023-05-14T10:12:20.575Z,7.35
2023-05-14T10:15:30.472Z,4.40
2023-05-14T10:18:38.377Z,3.15
2023-05-14T10:21:44.668Z,6.95
2023-05-14T10:24:49.861Z,6.08
2023-05-14T10:27:55.106Z,6.25
2023-05-14T10:31:02.116Z,4.83
2023-05-14T10:34:08.596Z,8.93
2023-05-14T10:37:17.933Z,5.80
2023-05-14T10:40:27.449Z,7.20
2023-05-14T10:43:33.260Z,4.25
2023-05-14T10:46:39.145Z,8.55
2023-05-14T10:49:45.641Z,6.65
2023-05-14T10:52:51.360Z,7.15
2023-05-14T10:55:58.579Z,8.25
2023-05-14T10:59:05.000Z,4.78
2023-05-14T11:02:14.957Z,10.40
2023-05-14T11:05:25.620Z,9.20
2023-05-14T11:08:32.109Z,7.17
2023-05-14T11:11:37.866Z,5.45
2023-05-14T11:14:43.450Z,6.97
2023-05-14T11:17:48.988Z,6.87
2023-05-14T11:20:54.763Z,6.05
2023-05-14T11:24:04.041Z,5.12
2023-05-14T11:27:08.920Z,5.95
2023-05-14T11:30:14.076Z,5.87
2023-05-14T11:33:20.665Z,7.60
2023-05-14T11:36:26.140Z,8.35
2023-05-14T11:39:34.494Z,4.78
2023-05-14T11:42:42.754Z,7.62
2023-05-14T11:45:50.312Z,7.65
2023-05-14T11:48:56.647Z,6.08
2023-05-14T11:52:02.055Z,7.28
2023-05-14T11:55:08.080Z,11.50
2023-05-14T11:58:13.475Z,31.90
2023-05-14T12:01:20.732Z,18.05
2023-05-14T12:04:31.027Z,14.47
2023-05-14T12:07:38.022Z,6.87
2023-05-14T12:10:43.193Z,5.97
2023-05-14T12:13:51.075Z,5.55
2023-05-14T12:16:57.845Z,8.58
2023-05-14T12:20:04.642Z,5.65
2023-05-14T12:23:10.292Z,6.50
2023-05-14T12:26:23.704Z,7.35
2023-05-14T12:32:34.989Z,11.83
2023-05-14T12:35:39.945Z,4.55
2023-05-14T12:38:47.605Z,9.13
2023-05-14T12:41:52.809Z,7.72
2023-05-14T12:44:59.790Z,5.83
2023-05-14T12:48:05.194Z,5.95
2023-05-14T12:51:10.977Z,17.48
2023-05-14T12:54:18.162Z,10.50
2023-05-14T12:57:24.127Z,6.10
2023-05-14T13:00:31.148Z,3.72
2023-05-14T13:03:37.394Z,5.55
2023-05-14T13:06:46.236Z,5.55
2023-05-14T13:09:52.557Z,5.53
2023-05-14T13:12:59.539Z,5.22
2023-05-14T13:16:05.902Z,4.78
2023-05-14T13:19:13.352Z,5.97
2023-05-14T13:22:18.322Z,3.35
2023-05-14T13:25:24.849Z,10.30
2023-05-14T13:28:30.678Z,4.40
2023-05-14T13:31:36.959Z,7.97
2023-05-14T13:34:43.469Z,3.70
2023-05-14T13:37:48.273Z,7.78
2023-05-14T13:40:53.693Z,4.12
2023-05-14T13:43:59.744Z,5.12
2023-05-14T13:47:06.560Z,5.00
2023-05-14T13:50:13.189Z,6.42
2023-05-14T13:53:18.833Z,12.50
2023-05-14T13:56:26.614Z,8.10
2023-05-14T13:59:33.152Z,4.95
2023-05-14T14:02:38.663Z,5.05
2023-05-14T14:05:44.964Z,6.50
2023-05-14T14:08:51.325Z,5.35
2023-05-14T14:11:57.896Z,3.90
2023-05-14T14:15:06.197Z,4.33
2023-05-14T14:18:11.770Z,4.00
2023-05-14T14:21:18.031Z,9.13
2023-05-14T14:24:24.802Z,5.40
2023-05-14T14:27:31.152Z,5.90
2023-05-14T14:30:36.453Z,5.30
2023-05-14T14:33:42.527Z,8.23
2023-05-14T14:36:48.034Z,5.42
2023-05-14T14:39:54.764Z,4.22
2023-05-14T14:43:00.433Z,4.80
2023-05-14T14:46:05.936Z,7.78
2023-05-14T14:49:12.581Z,5.95
2023-05-14T14:52:18.843Z,5.03
2023-05-14T14:55:25.006Z,6.25
2023-05-14T14:58:30.983Z,5.62
2023-05-14T15:01:36.746Z,5.22
2023-05-14T15:04:43.737Z,8.20
2023-05-14T15:07:51.572Z,4.25
2023-05-14T15:11:00.119Z,3.85
2023-05-14T15:14:06.076Z,3.50
2023-05-14T15:17:12.751Z,4.17
2023-05-14T15:20:11.259Z,7.62
2023-05-14T15:22:58.656Z,7.20
2023-05-14T15:25:50.751Z,8.25
2023-05-14T15:28:37.954Z,6.67
2023-05-14T15:31:32.919Z,6.12
2023-05-14T15:34:25.676Z,9.58
2023-05-14T15:37:31.648Z,4.42
2023-05-14T15:40:38.000Z,5.55
2023-05-14T15:43:43.421Z,6.62
2023-05-14T15:46:49.879Z,4.75
2023-05-14T15:49:55.978Z,3.87
2023-05-14T15:53:02.525Z,7.42
2023-05-14T15:56:11.318Z,5.50
2023-05-14T15:59:17.280Z,6.15
2023-05-14T16:02:23.162Z,4.75
2023-05-14T16:05:29.190Z,5.05
2023-05-14T16:08:33.930Z,6.00
2023-05-14T16:11:39.801Z,5.45
2023-05-14T16:14:44.982Z,6.70
2023-05-14T16:17:51.615Z,6.60
2023-05-14T16:20:56.248Z,6.03
2023-05-14T16:24:03.283Z,4.55
2023-05-14T16:27:08.131Z,7.53
2023-05-14T16:30:14.492Z,5.15
2023-05-14T16:33:20.535Z,5.08
2023-05-14T16:36:27.348Z,7.20
2023-05-14T16:39:33.169Z,5.85
2023-05-14T16:42:39.229Z,9.45
2023-05-14T16:45:47.036Z,11.93
2023-05-14T16:48:53.089Z,8.23
2023-05-14T16:51:59.184Z,8.00
2023-05-14T16:55:04.312Z,10.08
2023-05-14T16:58:11.457Z,7.85
2023-05-14T17:01:18.233Z,10.20
2023-05-14T17:04:25.963Z,9.98
2023-05-14T17:07:32.318Z,14.10
2023-05-14T17:10:39.312Z,6.42
2023-05-14T17:13:45.138Z,7.00
2023-05-14T17:16:52.572Z,8.88
2023-05-14T17:19:58.326Z,7.37
2023-05-14T17:23:03.872Z,7.47
2023-05-14T17:26:09.887Z,8.90
2023-05-14T17:29:10.143Z,8.10
2023-05-14T17:32:16.890Z,15.90
2023-05-14T17:35:23.481Z,11.10
2023-05-14T17:38:32.084Z,7.72
2023-05-14T17:41:38.429Z,10.98
2023-05-14T17:44:45.004Z,10.18
2023-05-14T17:47:52.239Z,16.35
2023-05-14T17:50:59.012Z,10.75
2023-05-14T17:54:05.068Z,15.58
2023-05-14T17:57:11.802Z,10.55
2023-05-14T18:00:18.398Z,14.95
2023-05-14T18:03:25.304Z,10.78
2023-05-14T18:06:30.979Z,19.12
2023-05-14T18:09:36.356Z,17.37
2023-05-14T18:12:42.454Z,38.05
2023-05-14T18:15:48.514Z,37.75
2023-05-14T18:18:56.361Z,28.95
2023-05-14T18:22:02.625Z,27.40
2023-05-14T18:25:10.559Z,34.15
2023-05-14T18:28:15.736Z,26.57
2023-05-14T18:31:22.752Z,29.70
2023-05-14T18:34:29.555Z,23.02
2023-05-14T18:37:35.680Z,21.45
2023-05-14T18:40:41.491Z,28.62
2023-05-14T18:43:47.514Z,24.12
2023-05-14T18:46:54.766Z,24.50
2023-05-14T18:50:02.282Z,25.85
2023-05-14T18:53:09.226Z,27.48
2023-05-14T18:56:16.157Z,23.30
2023-05-14T18:59:22.146Z,28.90
2023-05-14T19:02:27.305Z,27.50
2023-05-14T19:05:33.167Z,30.52
2023-05-14T19:08:39.403Z,37.95
2023-05-14T19:11:49.379Z,41.25
2023-05-14T19:14:54.466Z,47.67
2023-05-14T19:18:01.331Z,39.83
2023-05-14T19:21:09.059Z,38.85
2023-05-14T19:24:15.472Z,46.70
2023-05-14T19:27:23.760Z,38.98
2023-05-14T19:30:30.537Z,36.23
2023-05-14T19:33:36.518Z,41.08
2023-05-14T19:36:43.262Z,35.90
2023-05-14T19:39:49.998Z,37.42
2023-05-14T19:42:55.489Z,38.35
2023-05-14T19:46:01.645Z,33.10
2023-05-14T19:49:08.869Z,35.70
2023-05-14T19:52:15.587Z,31.45
2023-05-14T19:55:23.519Z,26.95
2023-05-14T19:58:32.002Z,29.95
2023-05-14T20:01:41.170Z,21.97
2023-05-14T20:04:47.800Z,19.32
2023-05-14T20:07:55.638Z,19.80
2023-05-14T20:11:04.152Z,22.60
2023-05-14T20:14:10.582Z,17.90
2023-05-14T20:17:17.909Z,11.20
2023-05-14T20:20:25.811Z,13.58
2023-05-14T20:23:33.683Z,14.60
2023-05-14T20:26:39.927Z,18.32
2023-05-14T20:29:46.460Z,17.27
2023-05-14T20:32:53.733Z,20.20
2023-05-14T20:36:01.105Z,15.83
2023-05-14T20:39:08.498Z,15.95
2023-05-14T20:42:14.238Z,15.20
2023-05-14T20:45:21.969Z,11.70
2023-05-14T20:48:28.985Z,15.53
2023-05-14T20:51:35.884Z,13.18
2023-05-14T20:54:41.602Z,16.82
2023-05-14T20:57:47.560Z,18.30
2023-05-14T21:00:54.548Z,17.55
2023-05-14T21:04:01.099Z,14.50
2023-05-14T21:07:09.806Z,12.33
2023-05-14T21:10:15.860Z,12.10
2023-05-14T21:13:21.659Z,20.43
2023-05-14T21:16:27.483Z,12.93
2023-05-14T21:19:33.660Z,15.13
2023-05-14T21:22:41.532Z,16.50
2023-05-14T21:25:46.966Z,14.80
2023-05-14T21:28:53.251Z,16.70
2023-05-14T21:32:00.564Z,14.43
2023-05-14T21:35:07.403Z,16.40
2023-05-14T21:38:12.508Z,18.57
2023-05-14T21:41:17.877Z,14.83
2023-05-14T21:44:23.662Z,16.50
2023-05-14T21:47:28.858Z,14.58
2023-05-14T21:50:35.883Z,14.73
2023-05-14T21:53:42.016Z,14.28
2023-05-14T21:56:50.070Z,14.87
2023-05-14T21:59:55.703Z,15.72
2023-05-14T22:03:03.193Z,22.40
2023-05-14T22:06:11.249Z,18.27
2023-05-14T22:09:18.190Z,15.70
2023-05-14T22:12:23.950Z,15.43
2023-05-14T22:15:29.662Z,14.53
2023-05-14T22:18:36.451Z,15.60
2023-05-14T22:21:42.638Z,146.43
2023-05-14T22:24:48.372Z,40.15
2023-05-14T22:27:54.321Z,104.30
2023-05-14T22:30:59.927Z,93.82
2023-05-14T22:34:05.665Z,76.02
2023-05-14T22:37:11.418Z,76.25
2023-05-14T22:40:17.084Z,32.25
2023-05-14T22:43:23.380Z,20.45
2023-05-14T22:46:29.521Z,17.57
2023-05-14T22:49:35.264Z,20.05
2023-05-14T22:52:41.462Z,22.73
2023-05-14T22:55:46.932Z,21.60
2023-05-14T22:58:55.021Z,23.38
2023-05-14T23:02:00.309Z,16.50
2023-05-14T23:05:06.175Z,18.77
2023-05-14T23:08:11.504Z,17.25
2023-05-14T23:11:17.795Z,21.80
2023-05-14T23:14:24.910Z,15.98
2023-05-14T23:17:31.804Z,17.05
2023-05-14T23:20:36.883Z,13.80
2023-05-14T23:23:42.162Z,20.52
2023-05-14T23:26:47.441Z,15.65
2023-05-14T23:29:52.586Z,13.20
2023-05-14T23:33:00.288Z,17.77
2023-05-14T23:36:06.552Z,17.07
2023-05-14T23:39:13.600Z,14.65
2023-05-14T23:42:18.582Z,14.30
2023-05-14T23:45:25.301Z,13.13
2023-05-14T23:48:32.138Z,13.72
2023-05-14T23:51:38.661Z,13.30
2023-05-14T23:54:45.114Z,14.73
2023-05-14T23:57:53.865Z,11.43
